Aeroporto :
LOGIN :

Iscrizione | Disclaimer

   EN    FR    IT 

 










Sommario :    VFR   VFR Marginale   IFR   IFR Intensivo   IFR Molto Intensivo
Visibilità : 
Base nubi : 
>= 8 km
>= 3000ft
5 / 8 km
1000 / 3000 ft
1500m / 5 km
500 / 1000 ft
800 / 1500m
200 / 500 ft
< 800m
< 200 ft
Simboli :   Temporali  Nebbia  Neve Forte  Precipitazioni Forti  Vento > 20 kt
SIGMETs :   Varie  Temporali  Ghiacco  Turbolenza  Onda orograficha  Ceneri Vulcaniche






- Altitudine del aeroporto : 909 ft
- Codice IATA : KSF


EDVK - Kassel Calden

ULTIMO METAR :
  • 221720Z VRB01KT 9999 FEW022 10/08 Q1024

METARs OBSOLETI :
  • 221650Z 04002KT 9999 SCT021 10/08 Q1024
  • 221620Z 02004KT CAVOK 10/08 Q1024
  • 221550Z 02004KT 9999 FEW020 11/08 Q1024
  • 221520Z 02005KT 340V050 9999 FEW021 12/08 Q1024
  • 221450Z 02005KT 340V070 9999 FEW024 13/08 Q1024

TAF TAF EDVK
Valido dal 22 a 15 ore il 23 a 00 ore UTC


221400Z 2215/2224 VRB03KT 9999 FEW020



MetMap, La meteo Aeronautica in un colpo d'occhio ! - Copyright ORBIFLY Dicembre 2007 - Disclaimer

ORBIFLY MET'MAP TEAM :

Programmazione e sviluppo : Alexandra Zaïnal
Concezione e sviluppo : Baudouin d'Aumeries
Co-Programmazione e sviluppo : Marc-Olivier Méhu
Supporto tecnico e logistico : Manuel Goepfert
Aiuto per la traduzione : Arnaldo La Scala

Contatto : metmap@orbifly.com




FONTI E CREDITI :

   NOAA